sensor_id;sensor_type;location;lat;lon;timestamp;temperature;humidity
2751;DHT22;1383;48.362;10.908;2023-07-08T00:00:47;21.70;22.30
2751;DHT22;1383;48.362;10.908;2023-07-08T00:03:18;21.70;22.50
2751;DHT22;1383;48.362;10.908;2023-07-08T00:05:46;21.60;22.40
2751;DHT22;1383;48.362;10.908;2023-07-08T00:08:15;21.60;22.90
2751;DHT22;1383;48.362;10.908;2023-07-08T00:10:42;21.60;22.80
2751;DHT22;1383;48.362;10.908;2023-07-08T00:13:10;21.60;22.90
2751;DHT22;1383;48.362;10.908;2023-07-08T00:15:40;21.60;22.90
2751;DHT22;1383;48.362;10.908;2023-07-08T00:18:16;21.70;23.50
2751;DHT22;1383;48.362;10.908;2023-07-08T00:23:10;21.70;24.00
2751;DHT22;1383;48.362;10.908;2023-07-08T00:25:38;21.70;24.10
2751;DHT22;1383;48.362;10.908;2023-07-08T00:28:09;21.70;24.20
2751;DHT22;1383;48.362;10.908;2023-07-08T00:30:38;21.70;24.60
2751;DHT22;1383;48.362;10.908;2023-07-08T00:33:06;21.60;24.70
2751;DHT22;1383;48.362;10.908;2023-07-08T00:35:37;21.60;24.90
2751;DHT22;1383;48.362;10.908;2023-07-08T00:40:50;21.60;25.10
2751;DHT22;1383;48.362;10.908;2023-07-08T00:43:23;21.60;24.90
2751;DHT22;1383;48.362;10.908;2023-07-08T00:45:53;21.50;25.00
2751;DHT22;1383;48.362;10.908;2023-07-08T00:48:31;21.50;25.10
2751;DHT22;1383;48.362;10.908;2023-07-08T00:51:00;21.50;25.20
2751;DHT22;1383;48.362;10.908;2023-07-08T00:53:30;21.50;25.10
2751;DHT22;1383;48.362;10.908;2023-07-08T00:56:13;21.50;25.30
2751;DHT22;1383;48.362;10.908;2023-07-08T00:58:50;21.60;25.40
2751;DHT22;1383;48.362;10.908;2023-07-08T01:01:19;21.50;25.80
2751;DHT22;1383;48.362;10.908;2023-07-08T01:03:58;21.40;26.00
2751;DHT22;1383;48.362;10.908;2023-07-08T01:06:33;21.40;26.10
2751;DHT22;1383;48.362;10.908;2023-07-08T01:09:03;21.40;26.20
2751;DHT22;1383;48.362;10.908;2023-07-08T01:11:37;21.30;26.50
2751;DHT22;1383;48.362;10.908;2023-07-08T01:14:07;21.30;26.70
2751;DHT22;1383;48.362;10.908;2023-07-08T01:16:36;21.20;26.90
2751;DHT22;1383;48.362;10.908;2023-07-08T01:19:04;21.10;27.00
2751;DHT22;1383;48.362;10.908;2023-07-08T01:21:44;21.00;27.10
2751;DHT22;1383;48.362;10.908;2023-07-08T01:24:11;20.90;27.50
2751;DHT22;1383;48.362;10.908;2023-07-08T01:26:42;20.90;27.70
2751;DHT22;1383;48.362;10.908;2023-07-08T01:29:11;20.90;27.90
2751;DHT22;1383;48.362;10.908;2023-07-08T01:31:39;20.90;27.80
2751;DHT22;1383;48.362;10.908;2023-07-08T01:34:09;20.80;27.60
2751;DHT22;1383;48.362;10.908;2023-07-08T01:36:40;20.90;28.10
2751;DHT22;1383;48.362;10.908;2023-07-08T01:39:15;20.90;28.30
2751;DHT22;1383;48.362;10.908;2023-07-08T01:41:45;20.80;28.30
2751;DHT22;1383;48.362;10.908;2023-07-08T01:44:32;20.80;28.50
2751;DHT22;1383;48.362;10.908;2023-07-08T01:47:13;20.70;29.00
2751;DHT22;1383;48.362;10.908;2023-07-08T01:49:43;20.70;28.60
2751;DHT22;1383;48.362;10.908;2023-07-08T01:52:12;20.60;28.90
2751;DHT22;1383;48.362;10.908;2023-07-08T01:54:39;20.50;29.30
2751;DHT22;1383;48.362;10.908;2023-07-08T01:57:06;20.50;29.30
2751;DHT22;1383;48.362;10.908;2023-07-08T01:59:33;20.50;29.30
2751;DHT22;1383;48.362;10.908;2023-07-08T02:02:00;20.40;29.50
2751;DHT22;1383;48.362;10.908;2023-07-08T02:04:27;20.40;29.70
2751;DHT22;1383;48.362;10.908;2023-07-08T02:06:59;20.40;30.00
2751;DHT22;1383;48.362;10.908;2023-07-08T02:09:27;20.40;30.60
2751;DHT22;1383;48.362;10.908;2023-07-08T02:11:55;20.30;30.90
2751;DHT22;1383;48.362;10.908;2023-07-08T02:14:22;20.30;31.00
2751;DHT22;1383;48.362;10.908;2023-07-08T02:16:49;20.30;31.10
2751;DHT22;1383;48.362;10.908;2023-07-08T02:19:16;20.30;31.10
2751;DHT22;1383;48.362;10.908;2023-07-08T02:21:43;20.30;31.20
2751;DHT22;1383;48.362;10.908;2023-07-08T02:24:10;20.20;31.40
2751;DHT22;1383;48.362;10.908;2023-07-08T02:26:37;20.10;31.80
2751;DHT22;1383;48.362;10.908;2023-07-08T02:29:04;20.10;32.30
2751;DHT22;1383;48.362;10.908;2023-07-08T02:31:31;20.00;32.60
2751;DHT22;1383;48.362;10.908;2023-07-08T02:33:58;20.10;32.20
2751;DHT22;1383;48.362;10.908;2023-07-08T02:36:25;20.10;32.10
2751;DHT22;1383;48.362;10.908;2023-07-08T02:38:52;20.00;31.20
2751;DHT22;1383;48.362;10.908;2023-07-08T02:41:19;20.00;30.90
2751;DHT22;1383;48.362;10.908;2023-07-08T02:43:46;20.00;30.70
2751;DHT22;1383;48.362;10.908;2023-07-08T02:46:13;20.00;30.70
2751;DHT22;1383;48.362;10.908;2023-07-08T02:48:40;20.10;31.20
2751;DHT22;1383;48.362;10.908;2023-07-08T02:51:07;20.10;31.20
2751;DHT22;1383;48.362;10.908;2023-07-08T02:53:35;20.00;31.40
2751;DHT22;1383;48.362;10.908;2023-07-08T02:56:02;19.90;32.50
2751;DHT22;1383;48.362;10.908;2023-07-08T02:58:29;19.90;31.80
2751;DHT22;1383;48.362;10.908;2023-07-08T03:00:57;19.90;32.50
2751;DHT22;1383;48.362;10.908;2023-07-08T03:03:29;19.90;32.30
2751;DHT22;1383;48.362;10.908;2023-07-08T03:05:59;19.90;31.70
2751;DHT22;1383;48.362;10.908;2023-07-08T03:08:27;19.80;31.60
2751;DHT22;1383;48.362;10.908;2023-07-08T03:10:56;19.80;31.50
2751;DHT22;1383;48.362;10.908;2023-07-08T03:13:25;19.90;31.50
2751;DHT22;1383;48.362;10.908;2023-07-08T03:15:52;19.90;32.10
2751;DHT22;1383;48.362;10.908;2023-07-08T03:18:19;19.90;32.40
2751;DHT22;1383;48.362;10.908;2023-07-08T03:20:48;19.90;32.70
2751;DHT22;1383;48.362;10.908;2023-07-08T03:23:15;19.90;32.50
2751;DHT22;1383;48.362;10.908;2023-07-08T03:25:42;19.90;32.90
2751;DHT22;1383;48.362;10.908;2023-07-08T03:28:09;20.00;33.10
2751;DHT22;1383;48.362;10.908;2023-07-08T03:30:39;19.90;33.30
2751;DHT22;1383;48.362;10.908;2023-07-08T03:33:07;19.80;33.60
2751;DHT22;1383;48.362;10.908;2023-07-08T03:35:34;19.80;33.90
2751;DHT22;1383;48.362;10.908;2023-07-08T03:38:02;19.80;33.90
2751;DHT22;1383;48.362;10.908;2023-07-08T03:40:29;19.80;34.60
2751;DHT22;1383;48.362;10.908;2023-07-08T03:42:56;19.80;34.60
2751;DHT22;1383;48.362;10.908;2023-07-08T03:45:25;19.70;34.90
2751;DHT22;1383;48.362;10.908;2023-07-08T03:47:52;19.70;35.00
2751;DHT22;1383;48.362;10.908;2023-07-08T03:50:24;19.70;35.00
2751;DHT22;1383;48.362;10.908;2023-07-08T03:52:53;19.80;35.00
2751;DHT22;1383;48.362;10.908;2023-07-08T03:55:21;19.80;34.20
2751;DHT22;1383;48.362;10.908;2023-07-08T03:57:48;19.90;33.80
2751;DHT22;1383;48.362;10.908;2023-07-08T04:00:15;20.00;33.40
2751;DHT22;1383;48.362;10.908;2023-07-08T04:02:43;20.10;32.60
2751;DHT22;1383;48.362;10.908;2023-07-08T04:05:18;20.10;32.20
2751;DHT22;1383;48.362;10.908;2023-07-08T04:07:46;20.20;32.00
2751;DHT22;1383;48.362;10.908;2023-07-08T04:10:14;20.20;32.30
2751;DHT22;1383;48.362;10.908;2023-07-08T04:12:42;20.20;31.70
2751;DHT22;1383;48.362;10.908;2023-07-08T04:15:09;20.10;31.60
2751;DHT22;1383;48.362;10.908;2023-07-08T04:17:45;20.10;31.60
2751;DHT22;1383;48.362;10.908;2023-07-08T04:20:18;20.10;31.60
2751;DHT22;1383;48.362;10.908;2023-07-08T04:22:46;20.10;31.70
2751;DHT22;1383;48.362;10.908;2023-07-08T04:25:13;20.10;31.50
2751;DHT22;1383;48.362;10.908;2023-07-08T04:27:41;20.20;31.50
2751;DHT22;1383;48.362;10.908;2023-07-08T04:30:20;20.30;31.40
2751;DHT22;1383;48.362;10.908;2023-07-08T04:32:47;20.40;31.10
2751;DHT22;1383;48.362;10.908;2023-07-08T04:35:14;20.50;31.30
2751;DHT22;1383;48.362;10.908;2023-07-08T04:37:41;20.50;30.90
2751;DHT22;1383;48.362;10.908;2023-07-08T04:40:18;20.60;30.50
2751;DHT22;1383;48.362;10.908;2023-07-08T04:42:46;20.60;30.20
2751;DHT22;1383;48.362;10.908;2023-07-08T04:45:20;20.80;30.00
2751;DHT22;1383;48.362;10.908;2023-07-08T04:47:48;20.80;30.70
2751;DHT22;1383;48.362;10.908;2023-07-08T04:50:19;20.80;30.50
2751;DHT22;1383;48.362;10.908;2023-07-08T04:52:46;20.90;30.00
2751;DHT22;1383;48.362;10.908;2023-07-08T04:55:13;21.00;29.70
2751;DHT22;1383;48.362;10.908;2023-07-08T04:57:40;21.10;29.70
2751;DHT22;1383;48.362;10.908;2023-07-08T05:00:10;21.00;29.70
2751;DHT22;1383;48.362;10.908;2023-07-08T05:02:40;20.90;29.60
2751;DHT22;1383;48.362;10.908;2023-07-08T05:05:07;21.00;29.70
2751;DHT22;1383;48.362;10.908;2023-07-08T05:07:37;21.10;29.80
2751;DHT22;1383;48.362;10.908;2023-07-08T05:10:04;21.30;29.50
2751;DHT22;1383;48.362;10.908;2023-07-08T05:12:31;21.30;29.60
2751;DHT22;1383;48.362;10.908;2023-07-08T05:14:58;21.40;30.00
2751;DHT22;1383;48.362;10.908;2023-07-08T05:17:27;21.60;29.50
2751;DHT22;1383;48.362;10.908;2023-07-08T05:19:57;21.70;29.50
2751;DHT22;1383;48.362;10.908;2023-07-08T05:22:27;21.90;29.30
2751;DHT22;1383;48.362;10.908;2023-07-08T05:24:54;21.80;29.50
2751;DHT22;1383;48.362;10.908;2023-07-08T05:27:23;21.90;29.60
2751;DHT22;1383;48.362;10.908;2023-07-08T05:29:51;21.80;29.30
2751;DHT22;1383;48.362;10.908;2023-07-08T05:32:18;21.80;29.70
2751;DHT22;1383;48.362;10.908;2023-07-08T05:34:45;21.70;30.80
2751;DHT22;1383;48.362;10.908;2023-07-08T05:37:13;21.40;31.20
2751;DHT22;1383;48.362;10.908;2023-07-08T05:39:40;21.10;31.70
2751;DHT22;1383;48.362;10.908;2023-07-08T05:42:07;21.00;32.30
2751;DHT22;1383;48.362;10.908;2023-07-08T05:44:34;20.80;33.10
2751;DHT22;1383;48.362;10.908;2023-07-08T05:47:01;20.70;33.60
2751;DHT22;1383;48.362;10.908;2023-07-08T05:49:28;20.60;33.90
2751;DHT22;1383;48.362;10.908;2023-07-08T05:51:55;20.50;33.90
2751;DHT22;1383;48.362;10.908;2023-07-08T05:54:22;20.60;34.20
2751;DHT22;1383;48.362;10.908;2023-07-08T05:56:51;20.80;34.10
2751;DHT22;1383;48.362;10.908;2023-07-08T05:59:18;21.10;33.00
2751;DHT22;1383;48.362;10.908;2023-07-08T06:01:45;21.60;31.70
2751;DHT22;1383;48.362;10.908;2023-07-08T06:04:12;22.00;31.10
2751;DHT22;1383;48.362;10.908;2023-07-08T06:06:39;22.40;30.70
2751;DHT22;1383;48.362;10.908;2023-07-08T06:09:06;22.90;29.70
2751;DHT22;1383;48.362;10.908;2023-07-08T06:11:33;23.30;28.70
2751;DHT22;1383;48.362;10.908;2023-07-08T06:14:00;23.80;28.00
2751;DHT22;1383;48.362;10.908;2023-07-08T06:16:28;24.20;27.40
2751;DHT22;1383;48.362;10.908;2023-07-08T06:19:06;24.60;26.70
2751;DHT22;1383;48.362;10.908;2023-07-08T06:21:34;24.80;26.00
2751;DHT22;1383;48.362;10.908;2023-07-08T06:24:01;25.10;25.60
2751;DHT22;1383;48.362;10.908;2023-07-08T06:26:28;25.40;25.00
2751;DHT22;1383;48.362;10.908;2023-07-08T06:28:55;25.40;24.20
2751;DHT22;1383;48.362;10.908;2023-07-08T06:31:22;24.50;24.70
2751;DHT22;1383;48.362;10.908;2023-07-08T06:33:49;24.40;25.50
2751;DHT22;1383;48.362;10.908;2023-07-08T06:36:16;24.60;25.30
2751;DHT22;1383;48.362;10.908;2023-07-08T06:38:43;24.80;24.70
2751;DHT22;1383;48.362;10.908;2023-07-08T06:41:09;24.80;25.20
2751;DHT22;1383;48.362;10.908;2023-07-08T06:43:36;24.90;24.80
2751;DHT22;1383;48.362;10.908;2023-07-08T06:46:03;24.70;25.20
2751;DHT22;1383;48.362;10.908;2023-07-08T06:48:31;24.50;25.20
2751;DHT22;1383;48.362;10.908;2023-07-08T06:50:58;24.60;25.90
2751;DHT22;1383;48.362;10.908;2023-07-08T06:53:26;24.70;26.00
2751;DHT22;1383;48.362;10.908;2023-07-08T06:55:52;24.80;25.70
2751;DHT22;1383;48.362;10.908;2023-07-08T06:58:19;24.50;26.10
2751;DHT22;1383;48.362;10.908;2023-07-08T07:00:46;24.40;26.60
2751;DHT22;1383;48.362;10.908;2023-07-08T07:03:13;24.40;26.70
2751;DHT22;1383;48.362;10.908;2023-07-08T07:05:41;24.40;26.50
2751;DHT22;1383;48.362;10.908;2023-07-08T07:08:08;24.40;26.60
2751;DHT22;1383;48.362;10.908;2023-07-08T07:10:35;24.50;26.80
2751;DHT22;1383;48.362;10.908;2023-07-08T07:13:03;24.60;26.40
2751;DHT22;1383;48.362;10.908;2023-07-08T07:15:30;24.70;26.10
2751;DHT22;1383;48.362;10.908;2023-07-08T07:17:59;24.70;26.00
2751;DHT22;1383;48.362;10.908;2023-07-08T07:20:26;24.90;25.90
2751;DHT22;1383;48.362;10.908;2023-07-08T07:22:53;25.10;26.20
2751;DHT22;1383;48.362;10.908;2023-07-08T07:25:21;25.10;26.00
2751;DHT22;1383;48.362;10.908;2023-07-08T07:27:48;25.10;25.90
2751;DHT22;1383;48.362;10.908;2023-07-08T07:30:15;25.10;26.10
2751;DHT22;1383;48.362;10.908;2023-07-08T07:32:42;25.20;26.30
2751;DHT22;1383;48.362;10.908;2023-07-08T07:35:11;25.10;26.30
2751;DHT22;1383;48.362;10.908;2023-07-08T07:37:42;25.10;26.70
2751;DHT22;1383;48.362;10.908;2023-07-08T07:40:11;25.00;27.10
2751;DHT22;1383;48.362;10.908;2023-07-08T07:42:40;24.80;26.40
2751;DHT22;1383;48.362;10.908;2023-07-08T07:45:09;24.70;26.80
2751;DHT22;1383;48.362;10.908;2023-07-08T07:47:36;24.60;26.10
2751;DHT22;1383;48.362;10.908;2023-07-08T07:50:04;24.40;25.80
2751;DHT22;1383;48.362;10.908;2023-07-08T07:52:32;24.50;26.10
2751;DHT22;1383;48.362;10.908;2023-07-08T07:55:00;24.60;26.10
2751;DHT22;1383;48.362;10.908;2023-07-08T07:57:27;24.60;26.20
2751;DHT22;1383;48.362;10.908;2023-07-08T08:00:07;24.70;26.40
2751;DHT22;1383;48.362;10.908;2023-07-08T08:02:35;24.70;25.40
2751;DHT22;1383;48.362;10.908;2023-07-08T08:05:02;24.70;25.70
2751;DHT22;1383;48.362;10.908;2023-07-08T08:07:29;24.70;25.50
2751;DHT22;1383;48.362;10.908;2023-07-08T08:09:56;24.90;25.80
2751;DHT22;1383;48.362;10.908;2023-07-08T08:12:23;25.00;25.70
2751;DHT22;1383;48.362;10.908;2023-07-08T08:14:51;24.80;25.30
2751;DHT22;1383;48.362;10.908;2023-07-08T08:17:18;24.80;24.80
2751;DHT22;1383;48.362;10.908;2023-07-08T08:19:46;24.90;25.10
2751;DHT22;1383;48.362;10.908;2023-07-08T08:22:13;25.10;25.10
2751;DHT22;1383;48.362;10.908;2023-07-08T08:24:40;25.30;24.90
2751;DHT22;1383;48.362;10.908;2023-07-08T08:27:07;25.80;23.80
2751;DHT22;1383;48.362;10.908;2023-07-08T08:29:34;25.90;24.00
2751;DHT22;1383;48.362;10.908;2023-07-08T08:32:01;26.10;23.70
2751;DHT22;1383;48.362;10.908;2023-07-08T08:34:29;26.50;23.50
2751;DHT22;1383;48.362;10.908;2023-07-08T08:36:56;26.50;23.20
2751;DHT22;1383;48.362;10.908;2023-07-08T08:39:23;26.50;23.30
2751;DHT22;1383;48.362;10.908;2023-07-08T08:41:53;26.40;23.10
2751;DHT22;1383;48.362;10.908;2023-07-08T08:44:28;26.50;23.20
2751;DHT22;1383;48.362;10.908;2023-07-08T08:47:56;26.70;23.10
2751;DHT22;1383;48.362;10.908;2023-07-08T08:52:53;27.40;22.40
2751;DHT22;1383;48.362;10.908;2023-07-08T08:55:23;27.70;21.70
2751;DHT22;1383;48.362;10.908;2023-07-08T08:58:18;27.80;21.50
2751;DHT22;1383;48.362;10.908;2023-07-08T09:00:55;27.90;20.40
2751;DHT22;1383;48.362;10.908;2023-07-08T09:06:09;28.40;20.30
2751;DHT22;1383;48.362;10.908;2023-07-08T09:08:37;28.60;20.40
2751;DHT22;1383;48.362;10.908;2023-07-08T09:13:45;28.60;19.20
2751;DHT22;1383;48.362;10.908;2023-07-08T09:16:29;28.50;19.30
2751;DHT22;1383;48.362;10.908;2023-07-08T09:22:28;28.00;19.90
2751;DHT22;1383;48.362;10.908;2023-07-08T09:27:33;28.00;20.60
2751;DHT22;1383;48.362;10.908;2023-07-08T09:30:00;28.00;20.80
2751;DHT22;1383;48.362;10.908;2023-07-08T09:32:27;27.90;20.70
2751;DHT22;1383;48.362;10.908;2023-07-08T09:35:02;28.20;21.10
2751;DHT22;1383;48.362;10.908;2023-07-08T09:37:31;28.30;20.60
2751;DHT22;1383;48.362;10.908;2023-07-08T09:40:03;28.40;20.80
2751;DHT22;1383;48.362;10.908;2023-07-08T09:42:34;28.50;20.60
2751;DHT22;1383;48.362;10.908;2023-07-08T09:45:13;28.60;20.50
2751;DHT22;1383;48.362;10.908;2023-07-08T09:47:42;28.60;20.40
2751;DHT22;1383;48.362;10.908;2023-07-08T09:50:21;28.80;20.60
2751;DHT22;1383;48.362;10.908;2023-07-08T09:52:50;28.90;20.60
2751;DHT22;1383;48.362;10.908;2023-07-08T09:55:18;29.30;20.60
2751;DHT22;1383;48.362;10.908;2023-07-08T09:57:46;29.70;20.10
2751;DHT22;1383;48.362;10.908;2023-07-08T10:00:16;30.20;19.60
2751;DHT22;1383;48.362;10.908;2023-07-08T10:02:58;30.40;18.90
2751;DHT22;1383;48.362;10.908;2023-07-08T10:05:42;30.60;18.80
2751;DHT22;1383;48.362;10.908;2023-07-08T10:08:18;30.90;18.40
2751;DHT22;1383;48.362;10.908;2023-07-08T10:10:47;31.20;17.30
2751;DHT22;1383;48.362;10.908;2023-07-08T10:13:51;31.70;16.70
2751;DHT22;1383;48.362;10.908;2023-07-08T10:16:39;31.90;17.00
2751;DHT22;1383;48.362;10.908;2023-07-08T10:19:15;32.00;16.60
2751;DHT22;1383;48.362;10.908;2023-07-08T10:25:03;32.50;15.90
2751;DHT22;1383;48.362;10.908;2023-07-08T10:27:47;32.50;15.80
2751;DHT22;1383;48.362;10.908;2023-07-08T10:30:25;32.90;15.80
2751;DHT22;1383;48.362;10.908;2023-07-08T10:35:33;32.80;15.50
2751;DHT22;1383;48.362;10.908;2023-07-08T10:41:06;32.70;15.30
2751;DHT22;1383;48.362;10.908;2023-07-08T10:43:55;32.50;15.30
2751;DHT22;1383;48.362;10.908;2023-07-08T11:00:27;31.00;17.50
2751;DHT22;1383;48.362;10.908;2023-07-08T11:06:29;30.50;18.40
2751;DHT22;1383;48.362;10.908;2023-07-08T11:09:02;30.10;18.90
2751;DHT22;1383;48.362;10.908;2023-07-08T11:11:41;29.90;19.30
2751;DHT22;1383;48.362;10.908;2023-07-08T11:22:49;29.30;20.30
2751;DHT22;1383;48.362;10.908;2023-07-08T11:25:19;29.20;20.50
2751;DHT22;1383;48.362;10.908;2023-07-08T11:27:50;28.90;20.30
2751;DHT22;1383;48.362;10.908;2023-07-08T11:30:22;28.80;20.70
2751;DHT22;1383;48.362;10.908;2023-07-08T11:33:02;28.80;20.30
2751;DHT22;1383;48.362;10.908;2023-07-08T11:35:51;28.70;20.40
2751;DHT22;1383;48.362;10.908;2023-07-08T11:38:20;28.70;20.90
2751;DHT22;1383;48.362;10.908;2023-07-08T11:41:13;28.60;20.50
2751;DHT22;1383;48.362;10.908;2023-07-08T11:43:51;28.60;20.40
2751;DHT22;1383;48.362;10.908;2023-07-08T11:46:22;28.80;20.20
2751;DHT22;1383;48.362;10.908;2023-07-08T11:48:53;28.90;20.70
2751;DHT22;1383;48.362;10.908;2023-07-08T11:51:28;28.80;20.90
2751;DHT22;1383;48.362;10.908;2023-07-08T11:54:20;28.90;21.20
2751;DHT22;1383;48.362;10.908;2023-07-08T11:57:05;28.90;20.20
2751;DHT22;1383;48.362;10.908;2023-07-08T11:59:37;28.80;20.90
2751;DHT22;1383;48.362;10.908;2023-07-08T12:02:13;28.80;21.20
2751;DHT22;1383;48.362;10.908;2023-07-08T12:05:01;28.90;21.40
2751;DHT22;1383;48.362;10.908;2023-07-08T12:07:37;28.90;20.70
2751;DHT22;1383;48.362;10.908;2023-07-08T12:10:17;28.80;21.10
2751;DHT22;1383;48.362;10.908;2023-07-08T12:12:46;28.70;21.00
2751;DHT22;1383;48.362;10.908;2023-07-08T12:15:25;28.80;21.20
2751;DHT22;1383;48.362;10.908;2023-07-08T12:17:56;28.70;20.10
2751;DHT22;1383;48.362;10.908;2023-07-08T12:20:28;28.70;17.00
2751;DHT22;1383;48.362;10.908;2023-07-08T12:22:56;28.70;16.40
2751;DHT22;1383;48.362;10.908;2023-07-08T12:25:27;28.70;15.90
2751;DHT22;1383;48.362;10.908;2023-07-08T12:27:55;28.70;16.80
2751;DHT22;1383;48.362;10.908;2023-07-08T12:30:22;28.70;16.50
2751;DHT22;1383;48.362;10.908;2023-07-08T12:32:49;28.70;16.40
2751;DHT22;1383;48.362;10.908;2023-07-08T12:35:32;28.70;16.80
2751;DHT22;1383;48.362;10.908;2023-07-08T12:38:09;28.80;17.10
2751;DHT22;1383;48.362;10.908;2023-07-08T12:40:40;28.90;17.40
2751;DHT22;1383;48.362;10.908;2023-07-08T12:43:09;29.00;17.30
2751;DHT22;1383;48.362;10.908;2023-07-08T12:45:37;29.00;16.70
2751;DHT22;1383;48.362;10.908;2023-07-08T12:48:04;28.70;16.80
2751;DHT22;1383;48.362;10.908;2023-07-08T12:50:31;28.70;16.90
2751;DHT22;1383;48.362;10.908;2023-07-08T12:52:58;28.80;16.60
2751;DHT22;1383;48.362;10.908;2023-07-08T12:55:31;28.80;15.30
2751;DHT22;1383;48.362;10.908;2023-07-08T12:57:59;28.80;15.90
2751;DHT22;1383;48.362;10.908;2023-07-08T13:00:32;28.90;16.50
2751;DHT22;1383;48.362;10.908;2023-07-08T13:03:06;29.00;15.80
2751;DHT22;1383;48.362;10.908;2023-07-08T13:05:34;28.90;15.80
2751;DHT22;1383;48.362;10.908;2023-07-08T13:08:01;28.90;16.30
2751;DHT22;1383;48.362;10.908;2023-07-08T13:10:29;28.90;16.60
2751;DHT22;1383;48.362;10.908;2023-07-08T13:13:00;29.00;16.70
2751;DHT22;1383;48.362;10.908;2023-07-08T13:15:36;29.00;16.10
2751;DHT22;1383;48.362;10.908;2023-07-08T13:18:03;29.10;16.10
2751;DHT22;1383;48.362;10.908;2023-07-08T13:20:31;29.20;16.50
2751;DHT22;1383;48.362;10.908;2023-07-08T13:23:01;29.40;15.20
2751;DHT22;1383;48.362;10.908;2023-07-08T13:25:30;29.50;15.20
2751;DHT22;1383;48.362;10.908;2023-07-08T13:28:00;29.70;15.30
2751;DHT22;1383;48.362;10.908;2023-07-08T13:30:29;29.70;15.20
2751;DHT22;1383;48.362;10.908;2023-07-08T13:33:21;29.70;13.80
2751;DHT22;1383;48.362;10.908;2023-07-08T13:35:51;29.80;13.80
2751;DHT22;1383;48.362;10.908;2023-07-08T13:38:22;29.80;13.80
2751;DHT22;1383;48.362;10.908;2023-07-08T13:40:55;29.80;14.60
2751;DHT22;1383;48.362;10.908;2023-07-08T13:43:27;29.90;14.10
2751;DHT22;1383;48.362;10.908;2023-07-08T13:45:55;30.00;15.20
2751;DHT22;1383;48.362;10.908;2023-07-08T13:48:37;30.00;14.80
2751;DHT22;1383;48.362;10.908;2023-07-08T13:51:19;29.90;15.10
2751;DHT22;1383;48.362;10.908;2023-07-08T13:53:49;29.70;14.80
2751;DHT22;1383;48.362;10.908;2023-07-08T13:56:29;29.70;14.40
2751;DHT22;1383;48.362;10.908;2023-07-08T13:59:11;29.60;14.30
2751;DHT22;1383;48.362;10.908;2023-07-08T14:01:40;29.70;14.60
2751;DHT22;1383;48.362;10.908;2023-07-08T14:04:11;29.70;14.90
2751;DHT22;1383;48.362;10.908;2023-07-08T14:06:40;29.90;14.60
2751;DHT22;1383;48.362;10.908;2023-07-08T14:09:19;29.90;14.50
2751;DHT22;1383;48.362;10.908;2023-07-08T14:11:48;30.00;14.30
2751;DHT22;1383;48.362;10.908;2023-07-08T14:14:15;30.00;14.80
2751;DHT22;1383;48.362;10.908;2023-07-08T14:16:49;29.90;14.80
2751;DHT22;1383;48.362;10.908;2023-07-08T14:19:22;29.90;15.60
2751;DHT22;1383;48.362;10.908;2023-07-08T14:21:56;29.80;15.60
2751;DHT22;1383;48.362;10.908;2023-07-08T14:24:24;29.80;14.70
2751;DHT22;1383;48.362;10.908;2023-07-08T14:26:52;29.90;14.80
2751;DHT22;1383;48.362;10.908;2023-07-08T14:29:19;30.00;14.80
2751;DHT22;1383;48.362;10.908;2023-07-08T14:31:46;30.00;14.90
2751;DHT22;1383;48.362;10.908;2023-07-08T14:34:25;30.10;14.70
2751;DHT22;1383;48.362;10.908;2023-07-08T14:36:52;30.10;14.10
2751;DHT22;1383;48.362;10.908;2023-07-08T14:39:20;30.20;13.60
2751;DHT22;1383;48.362;10.908;2023-07-08T14:41:49;30.10;13.70
2751;DHT22;1383;48.362;10.908;2023-07-08T14:44:21;30.10;13.40
2751;DHT22;1383;48.362;10.908;2023-07-08T14:46:49;30.10;13.40
2751;DHT22;1383;48.362;10.908;2023-07-08T14:49:19;30.10;13.40
2751;DHT22;1383;48.362;10.908;2023-07-08T14:51:47;30.10;13.70
2751;DHT22;1383;48.362;10.908;2023-07-08T14:54:14;30.00;14.00
2751;DHT22;1383;48.362;10.908;2023-07-08T14:56:42;29.90;13.60
2751;DHT22;1383;48.362;10.908;2023-07-08T14:59:21;29.90;13.40
2751;DHT22;1383;48.362;10.908;2023-07-08T15:01:49;29.80;13.80
2751;DHT22;1383;48.362;10.908;2023-07-08T15:04:17;29.80;13.80
2751;DHT22;1383;48.362;10.908;2023-07-08T15:06:46;29.90;14.00
2751;DHT22;1383;48.362;10.908;2023-07-08T15:09:13;30.10;14.90
2751;DHT22;1383;48.362;10.908;2023-07-08T15:11:41;30.20;14.20
2751;DHT22;1383;48.362;10.908;2023-07-08T15:16:44;30.20;14.10
2751;DHT22;1383;48.362;10.908;2023-07-08T15:19:12;30.20;14.00
2751;DHT22;1383;48.362;10.908;2023-07-08T15:21:40;30.30;13.60
2751;DHT22;1383;48.362;10.908;2023-07-08T15:24:09;30.30;13.60
2751;DHT22;1383;48.362;10.908;2023-07-08T15:26:39;30.20;13.40
2751;DHT22;1383;48.362;10.908;2023-07-08T15:29:14;30.20;13.70
2751;DHT22;1383;48.362;10.908;2023-07-08T15:31:41;30.20;13.60
2751;DHT22;1383;48.362;10.908;2023-07-08T15:34:17;30.20;13.60
2751;DHT22;1383;48.362;10.908;2023-07-08T15:36:46;30.20;13.90
2751;DHT22;1383;48.362;10.908;2023-07-08T15:39:14;30.20;13.60
2751;DHT22;1383;48.362;10.908;2023-07-08T15:41:42;30.20;13.60
2751;DHT22;1383;48.362;10.908;2023-07-08T15:44:13;30.20;13.80
2751;DHT22;1383;48.362;10.908;2023-07-08T15:46:46;30.10;13.90
2751;DHT22;1383;48.362;10.908;2023-07-08T15:49:21;30.10;14.40
2751;DHT22;1383;48.362;10.908;2023-07-08T15:51:56;30.00;14.60
2751;DHT22;1383;48.362;10.908;2023-07-08T15:54:23;30.00;14.40
2751;DHT22;1383;48.362;10.908;2023-07-08T15:56:52;30.10;14.50
2751;DHT22;1383;48.362;10.908;2023-07-08T15:59:27;30.20;14.10
2751;DHT22;1383;48.362;10.908;2023-07-08T16:01:57;30.30;14.10
2751;DHT22;1383;48.362;10.908;2023-07-08T16:04:32;30.30;14.60
2751;DHT22;1383;48.362;10.908;2023-07-08T16:06:59;30.30;14.10
2751;DHT22;1383;48.362;10.908;2023-07-08T16:09:26;30.30;14.30
2751;DHT22;1383;48.362;10.908;2023-07-08T16:11:53;30.30;15.00
2751;DHT22;1383;48.362;10.908;2023-07-08T16:14:20;30.40;14.50
2751;DHT22;1383;48.362;10.908;2023-07-08T16:16:48;30.40;14.50
2751;DHT22;1383;48.362;10.908;2023-07-08T16:19:15;30.50;14.40
2751;DHT22;1383;48.362;10.908;2023-07-08T16:21:42;30.40;14.40
2751;DHT22;1383;48.362;10.908;2023-07-08T16:24:09;30.40;14.80
2751;DHT22;1383;48.362;10.908;2023-07-08T16:26:36;30.30;14.20
2751;DHT22;1383;48.362;10.908;2023-07-08T16:29:04;30.30;14.30
2751;DHT22;1383;48.362;10.908;2023-07-08T16:31:32;30.30;14.40
2751;DHT22;1383;48.362;10.908;2023-07-08T16:34:00;30.20;14.10
2751;DHT22;1383;48.362;10.908;2023-07-08T16:36:28;30.10;14.40
2751;DHT22;1383;48.362;10.908;2023-07-08T16:38:55;30.10;14.20
2751;DHT22;1383;48.362;10.908;2023-07-08T16:41:34;30.10;14.20
2751;DHT22;1383;48.362;10.908;2023-07-08T16:44:08;30.10;14.10
2751;DHT22;1383;48.362;10.908;2023-07-08T16:46:38;30.00;14.60
2751;DHT22;1383;48.362;10.908;2023-07-08T16:49:08;30.00;14.90
2751;DHT22;1383;48.362;10.908;2023-07-08T16:51:36;29.90;15.10
2751;DHT22;1383;48.362;10.908;2023-07-08T16:54:13;29.90;15.20
2751;DHT22;1383;48.362;10.908;2023-07-08T16:56:41;29.80;17.00
2751;DHT22;1383;48.362;10.908;2023-07-08T16:59:10;29.80;15.40
2751;DHT22;1383;48.362;10.908;2023-07-08T17:01:37;29.80;16.00